Time;durP1;ratioP1;P1;durP2;ratioP2;P2;SDS_P1;SDS_P2;PMS_P1;PMS_P2;Temp;Humidity;BMP_temperature;BMP_pressure;BME280_temperature;BME280_humidity;BME280_pressure;Samples;Min_cycle;Max_cycle;Signal;HPM_P1;HPM_P2
2023/04/24 00:00:56;;;;;;;2.67;1.17;;;11.50;99.90;;;;;;5057691;28;20483;-63
2023/04/24 00:03:27;;;;;;;3.42;1.40;;;11.50;99.90;;;;;;5060618;28;20535;-63
2023/04/24 00:05:56;;;;;;;2.08;1.35;;;11.50;99.90;;;;;;5057509;28;20060;-63
2023/04/24 00:08:22;;;;;;;3.13;1.50;;;11.50;99.90;;;;;;5052433;28;20037;-63
2023/04/24 00:10:48;;;;;;;3.60;1.48;;;11.50;99.90;;;;;;5057262;28;20033;-63
2023/04/24 00:13:13;;;;;;;4.03;1.60;;;11.50;99.90;;;;;;5053172;28;20035;-63
2023/04/24 00:15:39;;;;;;;2.92;1.60;;;11.50;99.90;;;;;;5064353;28;20043;-63
2023/04/24 00:18:05;;;;;;;2.60;1.50;;;11.50;99.90;;;;;;5058343;28;20033;-63
2023/04/24 00:20:32;;;;;;;2.28;1.48;;;11.40;99.90;;;;;;5054918;28;20515;-63
2023/04/24 00:22:58;;;;;;;3.35;1.88;;;11.50;99.90;;;;;;5048282;28;20112;-63
2023/04/24 00:25:23;;;;;;;5.85;2.00;;;11.40;99.90;;;;;;5051447;28;20333;-63
2023/04/24 00:27:49;;;;;;;4.68;2.10;;;11.50;99.90;;;;;;5053064;28;20032;-64
2023/04/24 00:30:14;;;;;;;5.60;2.50;;;11.50;99.90;;;;;;5044657;28;20055;-63
2023/04/24 00:32:40;;;;;;;4.47;2.65;;;11.50;99.90;;;;;;5048874;28;20029;-64
2023/04/24 00:35:06;;;;;;;4.07;2.65;;;11.30;99.90;;;;;;5044105;28;20056;-63
2023/04/24 00:37:32;;;;;;;4.35;3.35;;;11.30;99.90;;;;;;5050380;28;20041;-64
2023/04/24 00:39:57;;;;;;;4.38;2.90;;;11.30;99.90;;;;;;5047001;28;20048;-64
2023/04/24 00:42:24;;;;;;;6.88;3.42;;;11.30;99.90;;;;;;5049433;28;20496;-64
2023/04/24 00:44:50;;;;;;;7.63;3.83;;;11.30;99.90;;;;;;5048006;28;20047;-64
2023/04/24 00:47:16;;;;;;;6.93;3.90;;;11.20;99.90;;;;;;5048668;28;20386;-64
2023/04/24 00:49:42;;;;;;;6.97;3.95;;;11.20;99.90;;;;;;5047506;28;20043;-64
2023/04/24 00:52:08;;;;;;;7.43;3.75;;;11.20;99.90;;;;;;5045145;28;20037;-65
2023/04/24 00:54:35;;;;;;;5.63;4.25;;;11.10;99.90;;;;;;5044470;28;20068;-64
2023/04/24 00:57:03;;;;;;;5.43;3.90;;;11.00;99.90;;;;;;5046954;28;20106;-64
2023/04/24 00:59:29;;;;;;;7.25;4.28;;;10.90;99.90;;;;;;5051698;28;20105;-64
2023/04/24 01:01:55;;;;;;;5.57;4.43;;;10.90;99.90;;;;;;5044738;28;20184;-64
2023/04/24 01:04:21;;;;;;;7.22;4.38;;;11.00;99.90;;;;;;5082548;27;20030;-64
2023/04/24 01:06:49;;;;;;;5.15;4.15;;;10.80;99.90;;;;;;5045684;28;20452;-64
2023/04/24 01:09:16;;;;;;;5.75;4.55;;;10.80;99.90;;;;;;5045418;28;20564;-64
2023/04/24 01:11:42;;;;;;;8.77;5.43;;;10.80;99.90;;;;;;5049640;28;20035;-64
2023/04/24 01:14:08;;;;;;;8.55;5.90;;;10.70;99.90;;;;;;5048779;28;20029;-64
2023/04/24 01:16:33;;;;;;;7.70;5.32;;;10.80;99.90;;;;;;5046154;28;20041;-64
2023/04/24 01:18:59;;;;;;;7.70;5.45;;;10.80;99.90;;;;;;5051730;28;20033;-64
2023/04/24 01:21:30;;;;;;;8.48;5.80;;;10.70;99.90;;;;;;5049413;28;20025;-64
2023/04/24 01:23:56;;;;;;;7.95;5.78;;;10.80;99.90;;;;;;5045249;28;20087;-64
2023/04/24 01:26:22;;;;;;;8.60;5.78;;;10.80;99.90;;;;;;5046233;28;20061;-64
2023/04/24 01:28:48;;;;;;;11.10;6.13;;;10.80;99.90;;;;;;5049020;28;20368;-64
2023/04/24 01:31:15;;;;;;;8.10;6.22;;;10.90;99.90;;;;;;5046452;28;20501;-64
2023/04/24 01:33:42;;;;;;;7.97;5.93;;;10.90;99.90;;;;;;5051362;28;20074;-64
2023/04/24 01:36:10;;;;;;;8.73;5.90;;;10.80;99.90;;;;;;5043188;28;20827;-64
2023/04/24 01:38:35;;;;;;;9.48;6.00;;;10.70;99.90;;;;;;5045187;28;20633;-64
2023/04/24 01:41:02;;;;;;;8.77;5.97;;;10.70;99.90;;;;;;5052091;28;20033;-64
2023/04/24 01:43:27;;;;;;;9.48;6.00;;;10.70;99.90;;;;;;5051405;28;20082;-64
2023/04/24 01:45:53;;;;;;;10.30;5.85;;;10.60;99.90;;;;;;5051241;28;20116;-63
2023/04/24 01:48:18;;;;;;;8.95;5.30;;;10.60;99.90;;;;;;5055717;28;20029;-64
2023/04/24 01:50:44;;;;;;;8.13;5.80;;;10.50;99.90;;;;;;5054197;28;20465;-64
2023/04/24 01:53:10;;;;;;;10.57;5.82;;;10.60;99.90;;;;;;5052092;28;20032;-64
2023/04/24 01:55:35;;;;;;;9.88;6.43;;;10.70;99.90;;;;;;5054974;28;20487;-64
2023/04/24 01:58:02;;;;;;;10.07;6.68;;;10.70;99.90;;;;;;5052399;28;20056;-64
2023/04/24 02:00:27;;;;;;;8.35;6.45;;;10.60;99.90;;;;;;5052633;28;20124;-64
2023/04/24 02:02:53;;;;;;;9.90;7.78;;;10.60;99.90;;;;;;5055264;28;20123;-64
2023/04/24 02:05:19;;;;;;;11.52;7.68;;;10.60;99.90;;;;;;5049016;28;20044;-64
2023/04/24 02:07:44;;;;;;;11.90;7.75;;;10.60;99.90;;;;;;5063611;28;20085;-64
2023/04/24 02:10:10;;;;;;;12.15;8.73;;;10.70;99.90;;;;;;5057360;28;20585;-64
2023/04/24 02:12:36;;;;;;;13.55;9.02;;;10.30;99.90;;;;;;5051913;28;20075;-64
2023/04/24 02:15:02;;;;;;;13.85;8.95;;;10.50;99.90;;;;;;5081728;27;20313;-64
2023/04/24 02:17:27;;;;;;;13.55;8.85;;;10.50;99.90;;;;;;5057629;28;20075;-64
2023/04/24 02:19:53;;;;;;;16.85;9.63;;;10.40;99.90;;;;;;5049100;28;20040;-64
2023/04/24 02:22:18;;;;;;;15.90;9.85;;;9.60;99.90;;;;;;5055296;28;20032;-64
2023/04/24 02:24:44;;;;;;;16.08;9.98;;;10.50;99.90;;;;;;5050278;28;20047;-64
2023/04/24 02:27:11;;;;;;;16.55;10.00;;;10.60;99.90;;;;;;5048579;28;20873;-64
2023/04/24 02:29:36;;;;;;;14.93;10.40;;;10.40;99.90;;;;;;5050618;28;20546;-64
2023/04/24 02:32:02;;;;;;;16.77;10.10;;;10.50;99.90;;;;;;5052846;28;20052;-64
2023/04/24 02:34:28;;;;;;;16.75;10.23;;;10.60;99.90;;;;;;5054801;28;20044;-64
2023/04/24 02:36:56;;;;;;;17.98;10.93;;;10.40;99.90;;;;;;5056131;28;20033;-64
2023/04/24 02:39:22;;;;;;;17.13;12.18;;;10.50;99.90;;;;;;5050350;28;20039;-64
2023/04/24 02:41:47;;;;;;;21.73;11.90;;;10.50;99.90;;;;;;5059406;28;20126;-63
2023/04/24 02:44:13;;;;;;;17.00;11.35;;;10.60;99.90;;;;;;5051726;28;20036;-64
2023/04/24 02:46:41;;;;;;;17.95;11.70;;;10.60;99.90;;;;;;5053709;28;20025;-64
2023/04/24 02:49:06;;;;;;;18.30;12.10;;;10.60;99.90;;;;;;5058009;28;20063;-64
2023/04/24 02:51:32;;;;;;;19.25;11.98;;;10.60;99.90;;;;;;5055259;28;20045;-64
2023/04/24 02:53:57;;;;;;;22.20;12.07;;;10.60;99.90;;;;;;5050816;28;20659;-64
2023/04/24 02:56:23;;;;;;;21.95;12.70;;;10.60;99.90;;;;;;5056752;28;20089;-65
2023/04/24 02:58:48;;;;;;;22.17;12.82;;;10.50;99.90;;;;;;5052014;28;20499;-64
2023/04/24 03:01:14;;;;;;;20.52;12.93;;;10.60;99.90;;;;;;5052953;28;20417;-64
2023/04/24 03:03:40;;;;;;;18.20;12.52;;;10.60;99.90;;;;;;5056684;28;20111;-64
2023/04/24 03:06:07;;;;;;;18.25;12.90;;;10.60;99.90;;;;;;5053646;28;20071;-64
2023/04/24 03:08:33;;;;;;;17.80;12.98;;;10.50;99.90;;;;;;5060348;28;20037;-65
2023/04/24 03:10:59;;;;;;;19.88;12.40;;;10.60;99.90;;;;;;5051455;28;20067;-64
2023/04/24 03:13:24;;;;;;;20.38;13.00;;;10.60;99.90;;;;;;5050809;28;20072;-65
2023/04/24 03:15:50;;;;;;;23.08;12.85;;;10.50;99.90;;;;;;5056827;28;20166;-64
2023/04/24 03:18:16;;;;;;;18.17;13.25;;;10.50;99.90;;;;;;5054691;28;20439;-64
2023/04/24 03:20:41;;;;;;;23.13;13.18;;;10.50;99.90;;;;;;5054193;28;20024;-64
2023/04/24 03:23:07;;;;;;;25.20;13.23;;;10.50;99.90;;;;;;5052476;28;20029;-64
2023/04/24 03:25:32;;;;;;;20.05;13.13;;;10.60;99.90;;;;;;5047515;28;20102;-64
2023/04/24 03:27:58;;;;;;;24.83;12.98;;;10.60;99.90;;;;;;5051830;28;20120;-64
2023/04/24 03:30:23;;;;;;;22.00;13.35;;;10.50;99.90;;;;;;5055988;28;20120;-64
2023/04/24 03:32:49;;;;;;;18.75;12.05;;;10.50;99.90;;;;;;5058203;28;20098;-64
2023/04/24 03:35:14;;;;;;;23.60;12.65;;;10.50;99.90;;;;;;5050131;28;20052;-64
2023/04/24 03:37:40;;;;;;;20.85;13.23;;;10.50;99.90;;;;;;5058611;27;20089;-64
2023/04/24 03:40:06;;;;;;;19.95;12.50;;;10.50;99.90;;;;;;5062042;28;20048;-64
2023/04/24 03:42:32;;;;;;;19.65;13.23;;;10.50;99.90;;;;;;5063500;28;20036;-64
2023/04/24 03:44:58;;;;;;;20.38;12.88;;;10.50;99.90;;;;;;5058412;28;20062;-64
2023/04/24 03:47:23;;;;;;;20.02;11.82;;;10.40;99.90;;;;;;5058484;28;20090;-66
2023/04/24 03:49:49;;;;;;;20.13;12.73;;;10.40;99.90;;;;;;5061411;28;20036;-64
2023/04/24 03:52:14;;;;;;;20.27;12.15;;;10.40;99.90;;;;;;5060051;27;20124;-64
2023/04/24 03:54:40;;;;;;;19.05;11.93;;;10.60;99.90;;;;;;5056351;28;20400;-64
2023/04/24 03:57:05;;;;;;;20.63;12.70;;;10.40;99.90;;;;;;5059110;28;20033;-65
2023/04/24 03:59:31;;;;;;;19.15;12.52;;;10.40;99.90;;;;;;5056959;28;20722;-64
2023/04/24 04:01:56;;;;;;;15.52;11.32;;;10.40;99.90;;;;;;5060512;28;20044;-64
2023/04/24 04:04:22;;;;;;;19.90;11.50;;;10.40;99.90;;;;;;5057578;28;20157;-64
2023/04/24 04:06:48;;;;;;;15.15;11.50;;;10.30;99.90;;;;;;5064695;27;20427;-64
2023/04/24 04:09:14;;;;;;;17.92;11.65;;;10.40;99.90;;;;;;5068359;28;21094;-64
2023/04/24 04:11:40;;;;;;;15.70;11.60;;;10.50;99.90;;;;;;5063509;27;20522;-64
2023/04/24 04:14:05;;;;;;;18.20;11.75;;;10.30;99.90;;;;;;5066618;27;20212;-63
2023/04/24 04:16:31;;;;;;;16.05;10.65;;;10.20;99.90;;;;;;5066395;27;20112;-64
2023/04/24 04:18:57;;;;;;;20.17;11.55;;;10.30;99.90;;;;;;5069772;27;20062;-63
2023/04/24 04:21:22;;;;;;;17.40;11.85;;;10.30;99.90;;;;;;5069180;27;20032;-62
2023/04/24 04:23:48;;;;;;;16.48;10.95;;;10.40;99.90;;;;;;5070685;27;20398;-64
2023/04/24 04:26:14;;;;;;;17.85;11.27;;;10.40;99.90;;;;;;5064691;28;20048;-64
2023/04/24 04:28:39;;;;;;;18.10;11.77;;;10.50;99.90;;;;;;5049376;28;20163;-64
2023/04/24 04:31:05;;;;;;;16.23;11.40;;;10.40;99.90;;;;;;5048115;28;20094;-64
2023/04/24 04:33:31;;;;;;;16.20;10.20;;;10.50;99.90;;;;;;5054918;28;20028;-64
2023/04/24 04:35:57;;;;;;;17.33;10.38;;;10.40;99.90;;;;;;5051327;28;20094;-64
2023/04/24 04:38:23;;;;;;;18.20;10.52;;;10.40;99.90;;;;;;5049087;28;20554;-64
2023/04/24 04:40:48;;;;;;;15.02;10.82;;;10.40;99.90;;;;;;5042221;28;20063;-64
2023/04/24 04:43:17;;;;;;;16.27;10.45;;;10.50;99.90;;;;;;5051538;28;20051;-64
2023/04/24 04:45:43;;;;;;;17.45;10.70;;;10.50;99.90;;;;;;5052473;28;20515;-64
2023/04/24 04:48:09;;;;;;;15.07;10.27;;;10.50;99.90;;;;;;5049687;28;20037;-64
2023/04/24 04:50:35;;;;;;;15.15;10.20;;;10.50;99.90;;;;;;5048628;27;20446;-64
2023/04/24 04:53:01;;;;;;;15.00;9.65;;;10.50;99.90;;;;;;5047651;28;20035;-64
2023/04/24 04:55:27;;;;;;;18.50;10.23;;;10.30;99.90;;;;;;5054013;28;20140;-64
2023/04/24 04:57:52;;;;;;;15.25;10.57;;;10.40;99.90;;;;;;5055564;27;20037;-65
2023/04/24 05:00:19;;;;;;;15.32;10.40;;;10.50;99.90;;;;;;5045663;28;20045;-65
2023/04/24 05:02:44;;;;;;;15.93;9.88;;;10.40;99.90;;;;;;5054901;28;20036;-65
2023/04/24 05:05:10;;;;;;;13.45;9.82;;;10.40;99.90;;;;;;5058683;28;20388;-64
2023/04/24 05:07:36;;;;;;;14.55;10.75;;;10.40;99.90;;;;;;5053475;28;20044;-65
2023/04/24 05:10:02;;;;;;;14.50;10.50;;;10.00;99.90;;;;;;5047654;28;20083;-64
2023/04/24 05:12:27;;;;;;;17.73;11.50;;;9.90;99.90;;;;;;5053839;28;20039;-62
2023/04/24 05:14:53;;;;;;;18.90;12.20;;;9.90;99.90;;;;;;5049534;28;20133;-62
2023/04/24 05:17:18;;;;;;;17.20;11.88;;;10.10;99.90;;;;;;5049524;28;20116;-62
2023/04/24 05:19:44;;;;;;;14.15;11.80;;;10.00;99.90;;;;;;5048026;28;20136;-62
2023/04/24 05:22:11;;;;;;;16.33;12.13;;;9.90;99.90;;;;;;5051863;28;20047;-62
2023/04/24 05:24:37;;;;;;;19.85;12.18;;;10.00;99.90;;;;;;5053212;27;20341;-61
2023/04/24 05:27:06;;;;;;;16.75;12.25;;;9.90;99.90;;;;;;5058536;27;20037;-61
2023/04/24 05:29:33;;;;;;;17.60;11.65;;;10.00;99.90;;;;;;5049887;28;20032;-62
2023/04/24 05:31:59;;;;;;;14.65;11.00;;;10.10;99.90;;;;;;5054153;28;20083;-61
2023/04/24 05:34:24;;;;;;;15.27;12.02;;;10.00;99.90;;;;;;5055587;28;20033;-62
2023/04/24 05:36:50;;;;;;;16.58;10.77;;;9.90;99.90;;;;;;5050668;28;20401;-61
2023/04/24 05:39:16;;;;;;;18.02;11.57;;;9.90;99.90;;;;;;5052225;28;20648;-62
2023/04/24 05:41:42;;;;;;;14.27;10.45;;;9.90;99.90;;;;;;5050698;28;20515;-61
2023/04/24 05:44:08;;;;;;;15.02;10.77;;;9.90;99.90;;;;;;5053361;28;20471;-61
2023/04/24 05:46:33;;;;;;;14.68;11.02;;;9.90;99.90;;;;;;5057261;28;20361;-61
2023/04/24 05:48:59;;;;;;;17.20;11.35;;;10.00;99.90;;;;;;5052038;28;20029;-61
2023/04/24 05:51:25;;;;;;;20.60;11.40;;;10.00;99.90;;;;;;5049564;28;20111;-61
2023/04/24 05:53:51;;;;;;;18.13;11.68;;;9.90;99.90;;;;;;5046432;28;20037;-62
2023/04/24 05:56:17;;;;;;;14.75;11.20;;;9.90;99.90;;;;;;5045811;28;20037;-62
2023/04/24 05:58:43;;;;;;;21.42;12.20;;;9.80;99.90;;;;;;5046844;28;20039;-62
2023/04/24 06:01:09;;;;;;;16.65;11.93;;;9.80;99.90;;;;;;5055236;28;20487;-61
2023/04/24 06:03:35;;;;;;;14.82;11.77;;;9.90;99.90;;;;;;5056109;28;20097;-61
2023/04/24 06:06:00;;;;;;;14.75;11.45;;;10.00;99.90;;;;;;5050567;28;20033;-61
2023/04/24 06:08:26;;;;;;;14.68;10.93;;;9.90;99.90;;;;;;5052486;28;20124;-61
2023/04/24 06:10:51;;;;;;;15.85;10.80;;;9.90;99.90;;;;;;5049155;28;20548;-62
2023/04/24 06:13:17;;;;;;;11.90;10.38;;;10.00;99.90;;;;;;5050213;28;20029;-61
2023/04/24 06:15:43;;;;;;;14.55;10.32;;;9.90;99.90;;;;;;5053948;28;20405;-61
2023/04/24 06:18:12;;;;;;;12.77;9.70;;;10.00;99.90;;;;;;5051642;28;20457;-63
2023/04/24 06:20:38;;;;;;;13.50;9.88;;;10.00;99.90;;;;;;5052871;28;20028;-62
2023/04/24 06:23:04;;;;;;;11.30;8.93;;;10.10;99.90;;;;;;5049772;28;20528;-62
2023/04/24 06:25:30;;;;;;;11.63;8.93;;;10.00;99.90;;;;;;5052879;28;20108;-62
2023/04/24 06:27:56;;;;;;;12.18;9.15;;;10.10;99.90;;;;;;5049900;28;20033;-62
2023/04/24 06:30:22;;;;;;;12.18;8.23;;;10.10;99.90;;;;;;5056244;28;20041;-62
2023/04/24 06:32:47;;;;;;;11.70;8.35;;;10.10;99.90;;;;;;5051668;28;20029;-62
2023/04/24 06:35:13;;;;;;;10.43;8.27;;;10.00;99.90;;;;;;5057311;28;20036;-61
2023/04/24 06:37:42;;;;;;;10.57;8.30;;;10.00;99.90;;;;;;5057306;28;20086;-61
2023/04/24 06:40:09;;;;;;;11.50;8.02;;;10.00;99.90;;;;;;5050619;28;20418;-61
2023/04/24 06:42:35;;;;;;;9.38;7.65;;;10.00;99.90;;;;;;5054855;28;20036;-61
2023/04/24 06:45:01;;;;;;;10.90;8.18;;;10.00;99.90;;;;;;5053364;28;20033;-61
2023/04/24 06:47:27;;;;;;;10.82;7.80;;;9.90;99.90;;;;;;5057613;28;20059;-61
2023/04/24 06:49:53;;;;;;;9.60;7.20;;;10.00;99.90;;;;;;5054904;28;20441;-62
2023/04/24 06:52:19;;;;;;;10.77;7.47;;;10.00;99.90;;;;;;5055403;28;20389;-62
2023/04/24 06:54:45;;;;;;;9.50;6.88;;;10.10;99.90;;;;;;5053926;28;21056;-62
2023/04/24 06:57:10;;;;;;;8.40;6.18;;;10.10;99.90;;;;;;5050276;27;20032;-62
2023/04/24 06:59:36;;;;;;;7.35;5.78;;;10.10;99.90;;;;;;5052548;28;20597;-62
2023/04/24 07:02:02;;;;;;;7.88;5.45;;;10.20;99.90;;;;;;5063056;28;20029;-62
2023/04/24 07:04:28;;;;;;;8.35;5.80;;;10.20;99.90;;;;;;5068233;28;20056;-61
2023/04/24 07:06:55;;;;;;;7.47;5.60;;;10.30;99.90;;;;;;5066574;28;20040;-62
2023/04/24 07:09:23;;;;;;;4.97;3.40;;;10.20;99.90;;;;;;5075317;28;20036;-61
2023/04/24 07:11:49;;;;;;;8.20;4.10;;;9.80;99.90;;;;;;5069346;28;20039;-61
2023/04/24 07:14:15;;;;;;;3.95;3.50;;;9.90;99.90;;;;;;5054534;28;20040;-62
2023/04/24 07:16:42;;;;;;;4.85;3.50;;;10.00;99.90;;;;;;5062194;28;20096;-61
2023/04/24 07:19:07;;;;;;;4.90;2.45;;;10.00;99.90;;;;;;5067862;28;20032;-61
2023/04/24 07:21:33;;;;;;;2.25;1.80;;;9.80;99.90;;;;;;5056872;28;20044;-61
2023/04/24 07:23:58;;;;;;;4.10;1.60;;;9.80;99.90;;;;;;5056238;27;20078;-61
2023/04/24 07:26:25;;;;;;;2.40;1.50;;;9.80;99.90;;;;;;5060659;28;20057;-61
2023/04/24 07:28:51;;;;;;;1.58;1.30;;;9.80;99.90;;;;;;5078226;28;20542;-61
2023/04/24 07:31:16;;;;;;;2.40;1.50;;;9.80;99.90;;;;;;5060491;28;20113;-61
2023/04/24 07:33:42;;;;;;;1.90;1.40;;;9.70;99.90;;;;;;5073626;28;20040;-61
2023/04/24 07:36:07;;;;;;;1.50;1.30;;;9.70;99.90;;;;;;5077203;27;20095;-61
2023/04/24 07:38:33;;;;;;;2.25;1.20;;;9.60;99.90;;;;;;5065186;28;20374;-61
2023/04/24 07:40:58;;;;;;;2.83;1.30;;;9.50;99.90;;;;;;5075234;27;20042;-61
2023/04/24 07:43:24;;;;;;;2.22;1.40;;;9.60;99.90;;;;;;5063032;27;20510;-61
2023/04/24 07:45:50;;;;;;;1.30;1.13;;;9.70;99.90;;;;;;5065086;28;20471;-61
2023/04/24 07:48:17;;;;;;;3.47;1.23;;;9.60;99.90;;;;;;5070216;28;20055;-61
2023/04/24 07:50:43;;;;;;;3.80;1.65;;;9.50;99.90;;;;;;5054026;28;20615;-61
2023/04/24 07:53:09;;;;;;;2.42;1.60;;;9.40;99.90;;;;;;5094614;27;20323;-61
2023/04/24 07:55:34;;;;;;;2.58;1.50;;;9.50;99.90;;;;;;5066844;28;20051;-61
2023/04/24 07:58:00;;;;;;;1.90;1.70;;;9.60;99.90;;;;;;5071554;28;20040;-61
2023/04/24 08:00:26;;;;;;;2.55;1.83;;;9.60;99.90;;;;;;5066860;28;20393;-61
2023/04/24 08:02:51;;;;;;;2.05;1.85;;;9.60;99.90;;;;;;5062564;28;20110;-61
2023/04/24 08:05:17;;;;;;;2.03;1.83;;;9.60;99.90;;;;;;5056163;28;20029;-62
2023/04/24 08:07:43;;;;;;;2.30;1.85;;;9.70;99.90;;;;;;5068104;28;20056;-61
2023/04/24 08:10:11;;;;;;;4.18;1.73;;;9.70;99.90;;;;;;5058772;28;20064;-61
2023/04/24 08:12:37;;;;;;;2.47;1.80;;;9.40;99.90;;;;;;5076386;27;20089;-61
2023/04/24 08:15:03;;;;;;;2.38;1.60;;;9.40;99.90;;;;;;5062397;28;20431;-61
2023/04/24 08:17:29;;;;;;;1.48;1.35;;;9.50;99.90;;;;;;5062721;27;20455;-61
2023/04/24 08:20:01;;;;;;;2.47;1.58;;;9.40;99.90;;;;;;5065760;28;20027;-61
2023/04/24 08:22:27;;;;;;;1.48;1.13;;;9.40;99.90;;;;;;5068818;27;20514;-61
2023/04/24 08:24:52;;;;;;;1.70;1.35;;;9.50;99.90;;;;;;5054313;28;20502;-61
2023/04/24 08:27:18;;;;;;;1.50;1.23;;;9.50;99.90;;;;;;5066894;28;20036;-61
2023/04/24 08:29:44;;;;;;;3.50;1.70;;;9.70;99.90;;;;;;5072201;28;20183;-61
2023/04/24 08:32:09;;;;;;;2.80;1.40;;;9.70;99.90;;;;;;5072798;27;20090;-61
2023/04/24 08:34:35;;;;;;;2.97;1.40;;;9.70;99.90;;;;;;5070960;28;20056;-61
2023/04/24 08:37:02;;;;;;;1.73;1.27;;;9.70;99.90;;;;;;5071632;28;20523;-61
2023/04/24 08:39:28;;;;;;;2.55;1.63;;;9.60;99.90;;;;;;5069509;28;20032;-61
2023/04/24 08:41:55;;;;;;;1.70;1.50;;;9.70;99.90;;;;;;5060604;27;20341;-61
2023/04/24 08:44:21;;;;;;;1.75;1.38;;;9.80;99.90;;;;;;5071166;27;20032;-61
2023/04/24 08:46:48;;;;;;;2.03;1.50;;;9.80;99.90;;;;;;5078443;27;20043;-61
2023/04/24 08:49:18;;;;;;;3.40;2.47;;;9.70;99.90;;;;;;5076733;28;20173;-61
2023/04/24 08:51:46;;;;;;;4.78;3.05;;;9.40;99.90;;;;;;5059751;28;20048;-61
2023/04/24 08:54:13;;;;;;;7.07;5.03;;;9.50;99.90;;;;;;5058964;28;20308;-61
2023/04/24 08:56:43;;;;;;;10.48;6.40;;;9.40;99.90;;;;;;5065868;28;20422;-61
2023/04/24 08:59:09;;;;;;;8.40;6.32;;;9.30;99.90;;;;;;5059295;28;20033;-58
2023/04/24 09:01:37;;;;;;;9.73;6.22;;;9.20;99.90;;;;;;5077250;28;20056;-59
2023/04/24 09:04:03;;;;;;;10.45;6.75;;;9.20;99.90;;;;;;5068983;28;20040;-57
2023/04/24 09:06:31;;;;;;;12.30;7.47;;;9.00;99.90;;;;;;5057204;28;20093;-57
2023/04/24 09:09:03;;;;;;;11.63;7.88;;;9.10;99.90;;;;;;5056535;28;20055;-57
2023/04/24 09:11:31;;;;;;;9.95;7.88;;;9.00;99.90;;;;;;5065421;28;20071;-57
2023/04/24 09:13:57;;;;;;;14.02;8.77;;;9.00;99.90;;;;;;5069290;27;20068;-57
2023/04/24 09:16:25;;;;;;;14.85;9.15;;;9.00;99.90;;;;;;5060869;28;20048;-57
2023/04/24 09:18:52;;;;;;;16.00;8.30;;;9.00;99.90;;;;;;5062143;28;20123;-59
2023/04/24 09:21:21;;;;;;;16.73;8.13;;;8.90;99.90;;;;;;5072482;27;20036;-58
2023/04/24 09:23:46;;;;;;;12.18;7.88;;;8.90;99.90;;;;;;5069257;28;20033;-57
2023/04/24 09:26:13;;;;;;;13.02;7.40;;;8.90;99.90;;;;;;5057693;28;20032;-58
2023/04/24 09:28:40;;;;;;;10.77;7.22;;;8.90;99.90;;;;;;5066170;28;20427;-58
2023/04/24 09:31:08;;;;;;;17.85;8.70;;;8.70;99.90;;;;;;5054361;27;20033;-57
2023/04/24 09:33:34;;;;;;;13.70;9.18;;;8.80;99.90;;;;;;5069067;28;20036;-58
2023/04/24 09:36:00;;;;;;;16.15;8.85;;;8.80;99.90;;;;;;5069139;28;20089;-58
2023/04/24 09:38:38;;;;;;;15.20;9.30;;;8.90;99.90;;;;;;5059004;28;20108;-57
2023/04/24 09:41:13;;;;;;;15.27;9.30;;;9.00;99.90;;;;;;5066567;28;20283;-56
2023/04/24 09:43:38;;;;;;;20.67;9.23;;;9.10;99.90;;;;;;5062198;28;20029;-60
2023/04/24 09:46:06;;;;;;;17.00;8.57;;;9.20;99.90;;;;;;5064699;28;20054;-58
2023/04/24 09:48:34;;;;;;;20.27;9.32;;;9.10;99.90;;;;;;5070678;28;20398;-56
2023/04/24 09:51:02;;;;;;;16.45;8.75;;;9.30;99.90;;;;;;5051045;28;20085;-57
2023/04/24 09:53:29;;;;;;;16.85;8.18;;;9.30;99.90;;;;;;5066127;27;20107;-56
2023/04/24 09:55:55;;;;;;;12.32;7.50;;;9.40;99.90;;;;;;5066467;28;20453;-58
2023/04/24 09:58:28;;;;;;;19.85;7.57;;;9.30;99.90;;;;;;5071602;27;20051;-59
2023/04/24 10:00:55;;;;;;;16.00;7.35;;;9.40;99.90;;;;;;5065478;28;20059;-57
2023/04/24 10:03:21;;;;;;;13.07;6.25;;;9.50;99.90;;;;;;5066459;28;20036;-56
2023/04/24 10:05:47;;;;;;;14.43;7.03;;;9.40;99.90;;;;;;5075539;27;20067;-60
2023/04/24 10:08:13;;;;;;;13.55;6.28;;;9.60;99.90;;;;;;5072381;28;20032;-59
2023/04/24 10:10:41;;;;;;;14.25;7.05;;;9.60;99.90;;;;;;5071049;27;20098;-58
2023/04/24 10:13:09;;;;;;;14.20;5.78;;;9.70;99.90;;;;;;5062441;28;20040;-58
2023/04/24 10:15:35;;;;;;;18.10;6.50;;;9.60;99.90;;;;;;5063859;27;20403;-57
2023/04/24 10:18:01;;;;;;;18.17;6.80;;;9.60;99.90;;;;;;5069810;28;20036;-56
2023/04/24 10:20:32;;;;;;;16.23;6.45;;;9.70;99.90;;;;;;5066986;28;20596;-56
2023/04/24 10:22:58;;;;;;;23.50;5.70;;;9.60;99.90;;;;;;5059111;28;20454;-56
2023/04/24 10:25:30;;;;;;;15.88;5.60;;;9.40;99.90;;;;;;5070551;28;20036;-56
2023/04/24 10:27:59;;;;;;;13.35;5.97;;;9.60;99.90;;;;;;5064519;28;20036;-56
2023/04/24 10:30:35;;;;;;;17.85;6.03;;;9.60;99.90;;;;;;5066195;28;20052;-56
2023/04/24 10:33:06;;;;;;;17.50;6.07;;;9.80;99.90;;;;;;5071225;27;20767;-56
2023/04/24 10:35:35;;;;;;;14.75;6.18;;;9.70;99.90;;;;;;5073472;28;20032;-56
2023/04/24 10:38:13;;;;;;;16.58;6.05;;;9.70;99.90;;;;;;5075588;28;20047;-56
2023/04/24 10:40:39;;;;;;;21.67;6.50;;;9.70;99.90;;;;;;5074200;28;20032;-56
2023/04/24 10:43:10;;;;;;;17.15;6.70;;;9.90;99.90;;;;;;5071473;28;20032;-56
2023/04/24 10:45:37;;;;;;;20.10;7.28;;;10.00;99.90;;;;;;5076067;28;20543;-56
2023/04/24 10:48:10;;;;;;;17.10;6.80;;;10.10;99.90;;;;;;5070147;28;20032;-56
2023/04/24 10:50:44;;;;;;;14.57;7.22;;;10.20;99.90;;;;;;5071009;28;20044;-57
2023/04/24 10:53:23;;;;;;;17.38;7.85;;;10.30;99.90;;;;;;5081273;28;20051;-57
2023/04/24 10:55:58;;;;;;;20.63;7.00;;;10.50;99.90;;;;;;5070782;27;20623;-57
2023/04/24 10:58:37;;;;;;;19.85;7.68;;;10.60;99.90;;;;;;5068499;28;20044;-57
2023/04/24 11:01:02;;;;;;;15.35;6.20;;;10.60;99.90;;;;;;5069729;27;20522;-54
2023/04/24 11:03:30;;;;;;;18.55;7.43;;;10.20;99.90;;;;;;5081724;28;20040;-56
2023/04/24 11:06:06;;;;;;;17.83;6.60;;;10.20;99.90;;;;;;5075669;27;20029;-57
2023/04/24 11:08:39;;;;;;;16.67;6.68;;;10.10;99.90;;;;;;5061463;28;20033;-57
2023/04/24 11:11:15;;;;;;;18.27;6.65;;;10.10;99.90;;;;;;5074578;27;20395;-57
2023/04/24 11:13:59;;;;;;;14.45;5.68;;;10.00;99.90;;;;;;5077139;28;20127;-57
2023/04/24 11:16:35;;;;;;;13.10;5.30;;;10.10;99.90;;;;;;5075218;27;20025;-57
2023/04/24 11:19:13;;;;;;;16.13;4.82;;;10.20;99.90;;;;;;5064553;28;20351;-57
2023/04/24 11:21:41;;;;;;;17.33;5.15;;;10.20;99.90;;;;;;5072456;28;20163;-57
2023/04/24 11:24:35;;;;;;;13.95;4.65;;;10.30;99.90;;;;;;5076554;28;20127;-56
2023/04/24 11:27:04;;;;;;;13.70;4.40;;;10.30;99.90;;;;;;5064326;28;20043;-56
2023/04/24 11:29:55;;;;;;;12.63;3.88;;;10.50;99.90;;;;;;5061126;28;20375;-57
2023/04/24 11:32:34;;;;;;;9.65;3.67;;;10.60;99.90;;;;;;5073054;28;20082;-57
2023/04/24 11:35:08;;;;;;;15.63;4.43;;;10.80;99.90;;;;;;5074353;28;20048;-57
2023/04/24 11:37:41;;;;;;;11.15;4.00;;;10.90;99.90;;;;;;5071024;28;20333;-57
2023/04/24 11:40:11;;;;;;;13.15;4.25;;;11.10;99.90;;;;;;5067444;27;20133;-55
2023/04/24 11:42:44;;;;;;;8.13;3.63;;;10.80;99.90;;;;;;5075579;27;20557;-57
2023/04/24 11:45:23;;;;;;;11.70;3.92;;;10.80;99.90;;;;;;5069742;27;20083;-57
2023/04/24 11:47:49;;;;;;;9.30;4.03;;;10.90;99.90;;;;;;5065144;28;20439;-57
2023/04/24 11:50:17;;;;;;;13.18;3.88;;;10.90;99.90;;;;;;5061461;28;20435;-57
2023/04/24 11:52:48;;;;;;;11.52;3.50;;;10.90;99.90;;;;;;5082260;28;20032;-58
2023/04/24 11:55:16;;;;;;;8.18;3.70;;;10.90;99.90;;;;;;5072276;27;20110;-57
2023/04/24 11:57:50;;;;;;;13.32;3.75;;;10.90;99.90;;;;;;5076360;28;20024;-57
2023/04/24 12:00:18;;;;;;;13.95;2.58;;;10.80;99.90;;;;;;5066858;28;20075;-57
2023/04/24 12:02:44;;;;;;;10.07;3.60;;;10.50;99.90;;;;;;5074204;28;20044;-57
2023/04/24 12:05:22;;;;;;;8.90;4.30;;;10.40;99.90;;;;;;5068865;27;20073;-57
2023/04/24 12:07:48;;;;;;;7.57;2.78;;;10.40;99.90;;;;;;5055863;28;20693;-57
2023/04/24 12:10:14;;;;;;;5.05;1.85;;;10.50;99.90;;;;;;5062321;28;20033;-57
2023/04/24 12:12:40;;;;;;;8.27;2.20;;;10.30;99.90;;;;;;5060864;28;20157;-57
2023/04/24 12:15:09;;;;;;;9.82;2.15;;;10.20;99.90;;;;;;5066509;28;20041;-57
2023/04/24 12:17:36;;;;;;;7.07;2.38;;;10.40;99.90;;;;;;5063960;28;20032;-57
2023/04/24 12:20:07;;;;;;;6.70;3.05;;;10.50;99.90;;;;;;5070063;28;20048;-57
2023/04/24 12:23:00;;;;;;;9.45;2.38;;;10.60;99.90;;;;;;5069242;28;20040;-57
2023/04/24 12:25:28;;;;;;;8.38;2.75;;;10.90;99.90;;;;;;5059915;28;20036;-57
2023/04/24 12:27:55;;;;;;;10.55;2.60;;;11.00;99.90;;;;;;5074619;28;20044;-57
2023/04/24 12:30:21;;;;;;;6.97;2.40;;;11.10;99.90;;;;;;5071642;28;20378;-57
2023/04/24 12:32:49;;;;;;;7.57;2.55;;;11.00;99.90;;;;;;5069374;28;20074;-57
2023/04/24 12:35:23;;;;;;;8.70;2.30;;;10.70;99.90;;;;;;5058728;28;20044;-57
2023/04/24 12:37:49;;;;;;;9.85;2.50;;;10.70;99.90;;;;;;5104055;27;20602;-57
2023/04/24 12:40:15;;;;;;;14.70;8.02;;;10.70;99.90;;;;;;5063157;28;20101;-57